
Distance (Route):
Temperature : 15.2°C
Humidity : 52.3%
Pressure : 0hPa| Receiver | Frames | First received | Last received |
|---|---|---|---|
| LZ4TU-5 | 48 | 2026-09-03 11:38:13 | 2026-09-03 13:05:39 |
| Receiver | Date | Latitude | Longitude | Direction | Speed | Altitude | Climb | Temperature | Humidity | Pressure | Voltage | Killtimer | Uptime | BKT | XDATA |
|---|---|---|---|---|---|---|---|---|---|---|---|---|---|---|---|
| LZ4TU-5 | 2026-09-03 13:05:39 | 42.60332 | 23.84571 | 175° | 20km/h | 1902m | -16.1m/s | 15.2°C | 52.3% | 0hPa | 0V | 08:16:00 | 00:00:00 | 00:00:00 | |
| LZ4TU-5 | 2026-09-03 13:05:35 | 42.60354 | 23.84570 | 170° | 18km/h | 1978m | -15.5m/s | 14.5°C | 53.6% | 0hPa | 0V | 08:16:00 | 00:00:00 | 00:00:00 | |
| LZ4TU-5 | 2026-09-03 13:05:30 | 42.60371 | 23.84567 | 176° | 15km/h | 2036m | -14.7m/s | 13.9°C | 56.0% | 0hPa | 0V | 08:16:00 | 00:00:00 | 00:00:00 | |
| LZ4TU-5 | 2026-09-03 13:05:26 | 42.60386 | 23.84573 | 212° | 11km/h | 2105m | -14.1m/s | 13.4°C | 0% | 0hPa | 0V | 08:16:00 | 00:00:00 | 00:00:00 | |
| LZ4TU-5 | 2026-09-03 13:05:21 | 42.60394 | 23.84580 | 215° | 9km/h | 2175m | -13.9m/s | 12.8°C | 57.1% | 0hPa | 0V | 08:16:00 | 00:00:00 | 00:00:00 | |
| LZ4TU-5 | 2026-09-03 13:05:16 | 42.60402 | 23.84584 | 181° | 7km/h | 2230m | -14.2m/s | 12.2°C | 59.2% | 0hPa | 0V | 08:16:00 | 00:00:00 | 00:00:00 | |
| LZ4TU-5 | 2026-09-03 13:05:07 | 42.60419 | 23.84592 | 202° | 9km/h | 2367m | -14.4m/s | 10.9°C | 63.6% | 0hPa | 0V | 08:17:00 | 00:00:00 | 00:00:00 | |
| LZ4TU-5 | 2026-09-03 13:05:03 | 42.60426 | 23.84595 | 184° | 5km/h | 2422m | -13.5m/s | 10.4°C | 64.8% | 0hPa | 0V | 08:17:00 | 00:00:00 | 00:00:00 | |
| LZ4TU-5 | 2026-09-03 13:04:58 | 42.60436 | 23.84596 | 189° | 5km/h | 2489m | -14.8m/s | 9.8°C | 68.1% | 0hPa | 0V | 08:17:00 | 00:00:00 | 00:00:00 | |
| LZ4TU-5 | 2026-09-03 13:04:53 | 42.60443 | 23.84595 | 165° | 7km/h | 2550m | -16.0m/s | 9.2°C | 71.0% | 0hPa | 0V | 08:17:00 | 00:00:00 | 00:00:00 | |
| LZ4TU-5 | 2026-09-03 13:04:49 | 42.60450 | 23.84595 | 173° | 4km/h | 2613m | -16.8m/s | 8.5°C | 70.3% | 0hPa | 0V | 08:17:00 | 00:00:00 | 00:00:00 | |
| LZ4TU-5 | 2026-09-03 13:04:45 | 42.60455 | 23.84595 | 0° | 0km/h | 2678m | -16.4m/s | 8.0°C | 75.6% | 0hPa | 0V | 08:17:00 | 00:00:00 | 00:00:00 | |
| LZ4TU-5 | 2026-09-03 13:04:41 | 42.60460 | 23.84595 | 170° | 7km/h | 2761m | -17.3m/s | 7.2°C | 70.2% | 0hPa | 0V | 08:17:00 | 00:00:00 | 00:00:00 | |
| LZ4TU-5 | 2026-09-03 13:04:36 | 42.60466 | 23.84593 | 176° | 9km/h | 2827m | -17.1m/s | 6.4°C | 78.8% | 0hPa | 0V | 08:17:00 | 00:00:00 | 00:00:00 | |
| LZ4TU-5 | 2026-09-03 13:04:32 | 42.60476 | 23.84589 | 164° | 13km/h | 2909m | -17.0m/s | 5.7°C | 78.7% | 0hPa | 0V | 08:17:00 | 00:00:00 | 00:00:00 | |
| LZ4TU-5 | 2026-09-03 13:04:26 | 42.60492 | 23.84579 | 154° | 16km/h | 2993m | -17.4m/s | 5.5°C | 58.1% | 0hPa | 0V | 08:17:00 | 00:00:00 | 00:00:00 | |
| LZ4TU-5 | 2026-09-03 13:04:22 | 42.60510 | 23.84563 | 139° | 16km/h | 3079m | -17.4m/s | 4.6°C | 65.9% | 0hPa | 0V | 08:18:00 | 00:00:00 | 00:00:00 | |
| LZ4TU-5 | 2026-09-03 13:04:17 | 42.60521 | 23.84549 | 140° | 11km/h | 3145m | -16.6m/s | 4.3°C | 61.8% | 0hPa | 0V | 08:18:00 | 00:00:00 | 00:00:00 | |
| LZ4TU-5 | 2026-09-03 13:04:13 | 42.60533 | 23.84535 | 117° | 15km/h | 3211m | -17.5m/s | 3.8°C | 62.6% | 0hPa | 0V | 08:18:00 | 00:00:00 | 00:00:00 | |
| LZ4TU-5 | 2026-09-03 13:04:09 | 42.60542 | 23.84508 | 113° | 15km/h | 3297m | -17.6m/s | 3.2°C | 65.1% | 0hPa | 0V | 08:18:00 | 00:00:00 | 00:00:00 | |
| LZ4TU-5 | 2026-09-03 13:04:05 | 42.60549 | 23.84490 | 128° | 16km/h | 3366m | -16.9m/s | 2.8°C | 65.7% | 0hPa | 0V | 08:18:00 | 00:00:00 | 00:00:00 | |
| LZ4TU-5 | 2026-09-03 13:03:55 | 42.60565 | 23.84450 | 122° | 16km/h | 3516m | -17.8m/s | 1.5°C | 61.4% | 0hPa | 0V | 08:18:00 | 00:00:00 | 00:00:00 | |
| LZ4TU-5 | 2026-09-03 13:03:51 | 42.60574 | 23.84431 | 117° | 15km/h | 3584m | -17.3m/s | 0.9°C | 63.5% | 0hPa | 0V | 08:18:00 | 00:00:00 | 00:00:00 | |
| LZ4TU-5 | 2026-09-03 13:03:47 | 42.60581 | 23.84409 | 125° | 15km/h | 3668m | -16.5m/s | 0.2°C | 65.9% | 0hPa | 0V | 08:18:00 | 00:00:00 | 00:00:00 | |
| LZ4TU-5 | 2026-09-03 13:03:43 | 42.60590 | 23.84390 | 119° | 18km/h | 3733m | -17.1m/s | -0.4°C | 73.2% | 0hPa | 0V | 08:18:00 | 00:00:00 | 00:00:00 | |
| LZ4TU-5 | 2026-09-03 13:03:39 | 42.60597 | 23.84365 | 110° | 20km/h | 3799m | -17.0m/s | -0.7°C | 77.8% | 0hPa | 0V | 08:18:00 | 00:00:00 | 00:00:00 | |
| LZ4TU-5 | 2026-09-03 13:03:34 | 42.60605 | 23.84334 | 113° | 15km/h | 3883m | -17.2m/s | -1.2°C | 70.9% | 0hPa | 0V | 00:00:00 | 00:00:00 | 00:00:00 | |
| LZ4TU-5 | 2026-09-03 13:03:29 | 42.60610 | 23.84316 | 122° | 11km/h | 3949m | -17.1m/s | -1.4°C | 63.4% | 0hPa | 0V | 00:00:00 | 00:00:00 | 00:00:00 | |
| LZ4TU-5 | 2026-09-03 13:03:25 | 42.60617 | 23.84303 | 145° | 7km/h | 4032m | -17.2m/s | -1.7°C | 64.2% | 0hPa | 0V | 00:00:00 | 00:00:00 | 00:00:00 | |
| LZ4TU-5 | 2026-09-03 13:03:21 | 42.60622 | 23.84299 | 145° | 2km/h | 4100m | -17.6m/s | -2.3°C | 60.6% | 0hPa | 0V | 00:00:00 | 00:00:00 | 00:00:00 | |
| LZ4TU-5 | 2026-09-03 13:03:16 | 42.60625 | 23.84298 | 121° | 4km/h | 4170m | -18.1m/s | -3.0°C | 66.4% | 0hPa | 0V | 00:00:00 | 00:00:00 | 00:00:00 | |
| LZ4TU-5 | 2026-09-03 13:03:12 | 42.60627 | 23.84294 | 165° | 4km/h | 4256m | -17.0m/s | -3.6°C | 36.9% | 0hPa | 0V | 00:00:00 | 00:00:00 | 00:00:00 | |
| LZ4TU-5 | 2026-09-03 13:03:02 | 42.60640 | 23.84274 | 143° | 13km/h | 4406m | -17.0m/s | -4.2°C | 0% | 0hPa | 0V | 00:00:00 | 00:00:00 | 00:00:00 | |
| LZ4TU-5 | 2026-09-03 13:02:54 | 42.60666 | 23.84237 | 140° | 16km/h | 4559m | -17.3m/s | -5.1°C | 0% | 0hPa | 0V | 00:00:00 | 00:00:00 | 00:00:00 | |
| LZ4TU-5 | 2026-09-03 13:02:49 | 42.60679 | 23.84223 | 142° | 20km/h | 4626m | -17.7m/s | 0°C | 0% | 0hPa | 0V | 00:00:00 | 00:00:00 | 00:00:00 | |
| LZ4TU-5 | 2026-09-03 13:02:45 | 42.60694 | 23.84203 | 137° | 13km/h | 4713m | -17.4m/s | 0°C | 0% | 0hPa | 0V | 00:00:00 | 00:00:00 | 00:00:00 | |
| LZ4TU-5 | 2026-09-03 12:57:51 | 42.61908 | 23.81320 | 121° | 55km/h | 11420m | -27.7m/s | 0°C | 0% | 0hPa | 0V | 00:00:00 | 00:00:00 | 00:00:00 | |
| LZ4TU-5 | 2026-09-03 12:38:41 | 42.60616 | 23.77431 | 246° | 4km/h | 23572m | 6.2m/s | 0°C | 0% | 0hPa | 0V | 00:00:00 | 00:00:00 | 00:00:00 | |
| LZ4TU-5 | 2026-09-03 12:38:38 | 42.60623 | 23.77432 | 189° | 9km/h | 23545m | 6.7m/s | 0°C | 0% | 0hPa | 0V | 00:00:00 | 00:00:00 | 00:00:00 | |
| LZ4TU-5 | 2026-09-03 12:12:25 | 42.58821 | 23.63831 | 80° | 62km/h | 14980m | 5.7m/s | 0°C | 0% | 0hPa | 0V | 00:00:00 | 00:00:00 | 00:00:00 | |
| LZ4TU-5 | 2026-09-03 12:12:20 | 42.58806 | 23.63745 | 74° | 68km/h | 14961m | 5.3m/s | 0°C | 0% | 0hPa | 0V | 00:00:00 | 00:00:00 | 00:00:00 | |
| LZ4TU-5 | 2026-09-03 12:08:50 | 42.58622 | 23.59682 | 91° | 68km/h | 13832m | 6.7m/s | 0°C | 0% | 0hPa | 0V | 00:00:00 | 00:00:00 | 00:00:00 | |
| LZ4TU-5 | 2026-09-03 12:08:45 | 42.58625 | 23.59569 | 95° | 68km/h | 13805m | 4.4m/s | 0°C | 0% | 0hPa | 0V | 00:00:00 | 00:00:00 | 00:00:00 | |
| LZ4TU-5 | 2026-09-03 11:55:28 | 42.60791 | 23.45503 | 96° | 51km/h | 9709m | 5.8m/s | 0°C | 0% | 0hPa | 0V | 00:00:00 | 00:00:00 | 00:00:00 | |
| LZ4TU-5 | 2026-09-03 11:55:24 | 42.60797 | 23.45447 | 106° | 37km/h | 9691m | 3.5m/s | 0°C | 0% | 0hPa | 0V | 00:00:00 | 00:00:00 | 00:00:00 | |
| LZ4TU-5 | 2026-09-03 11:52:59 | 42.61270 | 23.43616 | 111° | 31km/h | 8929m | 7.3m/s | 0°C | 0% | 0hPa | 0V | 00:00:00 | 00:00:00 | 00:00:00 | |
| LZ4TU-5 | 2026-09-03 11:38:18 | 42.64572 | 23.38360 | 157° | 15km/h | 3521m | 6.1m/s | 0°C | 0% | 0hPa | 0V | 00:00:00 | 00:00:00 | 00:00:00 | |
| LZ4TU-5 | 2026-09-03 11:38:13 | 42.64570 | 23.38350 | 38° | 5km/h | 3492m | 7.6m/s | 0°C | 0% | 0hPa | 0V | 00:00:00 | 00:00:00 | 00:00:00 |